Terminal Aerodrome Forecast
Issued by NWS

Home | Current Version | Previous Version | Text Only | Print | Product List | Glossary On
Versions: 1 2 3 4 5 6 7 8 9 10 11 12 13
083
FTUS45 KGGW 181720
TAFSDY
TAF
KSDY 181720Z 1818/1918 02010KT P6SM FEW015 SCT060
     FM181900 01010KT P6SM BKN030
     FM190000 36007KT P6SM OVC040=

USA.gov is the U.S. government's official web portal to all federal, state and local government web resources and services.